createdAt,value
2018-12-11T00:01:08.712Z,2.00
2018-12-11T00:03:36.310Z,1.90
2018-12-11T00:06:03.792Z,2.00
2018-12-11T00:08:31.313Z,1.90
2018-12-11T00:10:59.028Z,1.90
2018-12-11T00:13:26.460Z,1.90
2018-12-11T00:15:53.937Z,1.80
2018-12-11T00:18:21.395Z,1.90
2018-12-11T00:20:48.824Z,1.80
2018-12-11T00:23:16.306Z,1.90
2018-12-11T00:25:43.760Z,1.90
2018-12-11T00:28:11.192Z,2.00
2018-12-11T00:30:38.685Z,1.90
2018-12-11T00:33:06.233Z,2.00
2018-12-11T00:35:33.788Z,1.90
2018-12-11T00:38:01.220Z,2.00
2018-12-11T00:40:28.704Z,2.00
2018-12-11T00:42:56.142Z,2.10
2018-12-11T00:45:23.569Z,2.00
2018-12-11T00:47:51.076Z,2.10
2018-12-11T00:50:18.529Z,2.10
2018-12-11T00:52:45.985Z,2.00
2018-12-11T00:55:13.416Z,2.00
2018-12-11T00:57:40.849Z,1.90
2018-12-11T01:00:08.577Z,2.00
2018-12-11T01:02:36.125Z,2.00
2018-12-11T01:05:04.097Z,2.00
2018-12-11T01:07:31.556Z,2.00
2018-12-11T01:09:59.020Z,2.00
2018-12-11T01:12:26.452Z,1.90
2018-12-11T01:14:53.890Z,2.00
2018-12-11T01:17:21.377Z,2.00
2018-12-11T01:19:48.809Z,2.10
2018-12-11T01:22:16.249Z,2.10
2018-12-11T01:24:43.737Z,2.20
2018-12-11T01:27:11.193Z,2.20
2018-12-11T01:29:38.661Z,2.20
2018-12-11T01:32:06.094Z,2.30
2018-12-11T01:34:33.540Z,2.30
2018-12-11T01:37:00.991Z,2.40
2018-12-11T01:39:28.469Z,2.40
2018-12-11T01:41:55.909Z,2.40
2018-12-11T01:44:23.352Z,2.40
2018-12-11T01:46:50.781Z,2.30
2018-12-11T01:49:18.257Z,2.20
2018-12-11T01:51:45.732Z,2.10
2018-12-11T01:54:13.188Z,2.10
2018-12-11T01:56:40.645Z,2.20
2018-12-11T01:59:08.925Z,2.20
2018-12-11T02:01:36.353Z,2.30
2018-12-11T02:04:03.786Z,2.30
2018-12-11T02:06:31.550Z,2.30
2018-12-11T02:08:59.161Z,2.20
2018-12-11T02:11:26.584Z,2.10
2018-12-11T02:13:54.081Z,2.00
2018-12-11T02:16:21.639Z,1.90
2018-12-11T02:18:49.188Z,2.00
2018-12-11T02:21:16.654Z,2.00
2018-12-11T02:23:44.101Z,2.00
2018-12-11T02:26:11.554Z,2.00
2018-12-11T02:28:39.008Z,1.90
2018-12-11T02:31:06.565Z,1.90
2018-12-11T02:33:34.022Z,1.90
2018-12-11T02:36:01.586Z,1.90
2018-12-11T02:38:29.047Z,1.90
2018-12-11T02:40:56.496Z,1.90
2018-12-11T02:43:23.957Z,2.00
2018-12-11T02:45:51.425Z,2.00
2018-12-11T02:48:18.873Z,2.10
2018-12-11T02:50:46.329Z,2.10
2018-12-11T02:53:13.785Z,2.00
2018-12-11T02:55:41.235Z,2.00
2018-12-11T02:58:08.700Z,2.00
2018-12-11T03:00:36.165Z,1.90
2018-12-11T03:03:03.709Z,1.90
2018-12-11T03:05:31.264Z,1.80
2018-12-11T03:07:58.832Z,1.70
2018-12-11T03:10:26.268Z,1.70
2018-12-11T03:12:54.388Z,1.70
2018-12-11T03:15:21.822Z,1.70
2018-12-11T03:17:49.274Z,1.80
2018-12-11T03:20:16.793Z,1.90
2018-12-11T03:22:44.203Z,1.90
2018-12-11T03:25:11.753Z,1.80
2018-12-11T03:27:39.189Z,1.90
2018-12-11T03:30:06.767Z,1.90
2018-12-11T03:32:34.304Z,1.80
2018-12-11T03:35:01.746Z,1.90
2018-12-11T03:37:29.324Z,1.80
2018-12-11T03:39:56.791Z,1.90
2018-12-11T03:42:24.341Z,1.80
2018-12-11T03:44:51.907Z,1.90
2018-12-11T03:47:19.360Z,2.00
2018-12-11T03:49:47.036Z,2.00
2018-12-11T03:52:21.098Z,2.10
2018-12-11T03:54:44.090Z,2.10
2018-12-11T03:57:11.647Z,2.10
2018-12-11T03:59:39.071Z,2.10
2018-12-11T04:02:06.548Z,2.10
2018-12-11T04:04:34.113Z,2.20
2018-12-11T04:07:01.578Z,2.20
2018-12-11T04:09:29.016Z,2.20
2018-12-11T04:11:56.513Z,2.20
2018-12-11T04:14:24.245Z,2.30
2018-12-11T04:16:51.822Z,2.20
2018-12-11T04:19:19.371Z,2.10
2018-12-11T04:21:46.926Z,2.00
2018-12-11T04:24:14.376Z,1.90
2018-12-11T04:26:41.942Z,1.90
2018-12-11T04:29:09.379Z,1.90
2018-12-11T04:31:36.816Z,1.90
2018-12-11T04:34:04.303Z,2.00
2018-12-11T04:36:31.870Z,2.00
2018-12-11T04:38:59.434Z,2.10
2018-12-11T04:41:26.980Z,2.20
2018-12-11T04:43:54.447Z,2.00
2018-12-11T04:46:21.892Z,2.00
2018-12-11T04:48:49.344Z,1.90
2018-12-11T04:51:16.865Z,1.90
2018-12-11T04:53:44.354Z,1.90
2018-12-11T04:56:11.873Z,1.90
2018-12-11T04:58:39.407Z,2.00
2018-12-11T05:01:06.933Z,2.10
2018-12-11T05:03:34.454Z,2.10
2018-12-11T05:06:01.986Z,2.20
2018-12-11T05:08:29.489Z,2.20
2018-12-11T05:10:57.700Z,2.20
2018-12-11T05:13:25.209Z,2.30
2018-12-11T05:15:52.710Z,2.30
2018-12-11T05:18:21.320Z,2.30
2018-12-11T05:20:48.960Z,2.30
2018-12-11T05:23:16.465Z,2.40
2018-12-11T05:25:43.963Z,2.40
2018-12-11T05:28:11.520Z,2.40
2018-12-11T05:30:39.096Z,2.30
2018-12-11T05:33:06.530Z,2.40
2018-12-11T05:35:33.992Z,2.30
2018-12-11T05:38:01.452Z,2.40
2018-12-11T05:40:29.000Z,2.30
2018-12-11T05:42:56.531Z,2.30
2018-12-11T05:45:24.039Z,2.20
2018-12-11T05:47:51.552Z,2.10
2018-12-11T05:50:19.071Z,2.10
2018-12-11T05:52:46.575Z,2.10
2018-12-11T05:55:14.093Z,2.10
2018-12-11T05:57:41.602Z,2.10
2018-12-11T06:00:10.328Z,2.10
2018-12-11T06:02:37.808Z,2.10
2018-12-11T06:05:07.166Z,2.10
2018-12-11T06:07:34.677Z,2.10
2018-12-11T06:10:02.225Z,2.10
2018-12-11T06:12:29.703Z,2.10
2018-12-11T06:14:57.293Z,2.10
2018-12-11T06:17:24.724Z,2.10
2018-12-11T06:19:52.152Z,2.00
2018-12-11T06:22:19.619Z,2.00
2018-12-11T06:24:47.109Z,2.00
2018-12-11T06:27:14.678Z,1.90
2018-12-11T06:29:42.124Z,2.00
2018-12-11T06:32:09.688Z,2.10
2018-12-11T06:34:37.144Z,2.10
2018-12-11T06:37:04.602Z,2.10
2018-12-11T06:39:32.057Z,2.10
2018-12-11T06:41:59.520Z,2.10
2018-12-11T06:44:26.992Z,2.10
2018-12-11T06:46:54.488Z,2.10
2018-12-11T06:49:21.952Z,2.10
2018-12-11T06:51:49.392Z,2.10
2018-12-11T06:54:16.828Z,2.20
2018-12-11T06:56:44.359Z,2.20
2018-12-11T06:59:11.780Z,2.20
2018-12-11T07:01:39.272Z,2.30
2018-12-11T07:04:06.708Z,2.30
2018-12-11T07:09:11.356Z,2.30
2018-12-11T07:11:38.815Z,2.30
2018-12-11T07:14:06.273Z,2.30
2018-12-11T07:16:33.701Z,2.30
2018-12-11T07:19:01.241Z,2.30
2018-12-11T07:21:28.677Z,2.30
2018-12-11T07:23:56.180Z,2.30
2018-12-11T07:26:23.760Z,2.40
2018-12-11T07:28:51.197Z,2.40
2018-12-11T07:31:18.646Z,2.40
2018-12-11T07:33:50.767Z,2.40
2018-12-11T07:36:15.614Z,2.50
2018-12-11T07:38:43.069Z,2.60
2018-12-11T07:41:10.532Z,2.60
2018-12-11T07:43:37.975Z,2.80
2018-12-11T07:46:05.432Z,2.80
2018-12-11T07:48:32.877Z,2.80
2018-12-11T07:51:00.365Z,2.80
2018-12-11T07:53:27.923Z,2.80
2018-12-11T07:56:00.177Z,2.90
2018-12-11T07:58:24.872Z,2.80
2018-12-11T08:00:52.424Z,2.90
2018-12-11T08:03:19.895Z,3.00
2018-12-11T08:05:47.346Z,3.00
2018-12-11T08:08:16.840Z,3.00
2018-12-11T08:10:44.270Z,3.00
2018-12-11T08:13:11.795Z,3.00
2018-12-11T08:15:39.309Z,3.00
2018-12-11T08:18:06.806Z,3.10
2018-12-11T08:20:34.308Z,3.10
2018-12-11T08:23:01.831Z,3.10
2018-12-11T08:25:29.334Z,3.20
2018-12-11T08:27:56.851Z,3.20
2018-12-11T08:30:24.370Z,3.30
2018-12-11T08:32:51.874Z,3.40
2018-12-11T08:35:19.378Z,3.60
2018-12-11T08:37:46.890Z,3.70
2018-12-11T08:40:14.399Z,3.70
2018-12-11T08:42:41.820Z,3.70
2018-12-11T08:45:09.311Z,3.60
2018-12-11T08:47:36.865Z,3.50
2018-12-11T08:50:05.159Z,3.60
2018-12-11T08:52:32.630Z,3.60
2018-12-11T08:55:00.167Z,3.60
2018-12-11T08:57:27.612Z,4.10
2018-12-11T08:59:55.173Z,4.20
2018-12-11T09:02:22.737Z,4.10
2018-12-11T09:04:50.189Z,4.00
2018-12-11T09:07:17.627Z,3.80
2018-12-11T09:09:45.195Z,3.70
2018-12-11T09:12:12.665Z,3.60
2018-12-11T09:14:40.221Z,3.60
2018-12-11T09:17:10.329Z,3.60
2018-12-11T09:19:37.173Z,3.60
2018-12-11T09:22:04.608Z,3.60
2018-12-11T09:24:32.100Z,3.60
2018-12-11T09:26:59.653Z,3.60
2018-12-11T09:29:27.076Z,3.60
2018-12-11T09:31:54.572Z,3.60
2018-12-11T09:34:22.007Z,3.60
2018-12-11T09:36:49.437Z,3.60
2018-12-11T09:39:16.927Z,3.60
2018-12-11T09:41:44.360Z,3.60
2018-12-11T09:44:11.836Z,3.70
2018-12-11T09:46:39.276Z,3.80
2018-12-11T09:49:06.769Z,3.90
2018-12-11T09:51:34.312Z,3.90
2018-12-11T09:54:01.773Z,4.00
2018-12-11T09:56:29.287Z,4.20
2018-12-11T09:58:56.857Z,4.60
2018-12-11T10:01:24.287Z,4.90
2018-12-11T10:03:51.795Z,4.80
2018-12-11T10:06:19.266Z,4.60
2018-12-11T10:08:46.683Z,4.40
2018-12-11T10:11:14.177Z,4.20
2018-12-11T10:13:41.614Z,4.20
2018-12-11T10:16:09.083Z,4.20
2018-12-11T10:18:36.517Z,4.20
2018-12-11T10:21:03.977Z,4.20
2018-12-11T10:23:31.957Z,4.10
2018-12-11T10:25:59.729Z,4.10
2018-12-11T10:28:27.184Z,4.30
2018-12-11T10:30:54.643Z,4.40
2018-12-11T10:33:22.083Z,4.50
2018-12-11T10:35:49.547Z,4.60
2018-12-11T10:38:17.000Z,4.50
2018-12-11T10:40:44.434Z,4.40
2018-12-11T10:43:11.917Z,4.40
2018-12-11T10:45:39.480Z,4.40
2018-12-11T10:48:06.909Z,4.50
2018-12-11T10:50:34.495Z,5.00
2018-12-11T10:53:02.063Z,5.20
2018-12-11T10:55:29.714Z,5.30
2018-12-11T10:57:57.449Z,5.10
2018-12-11T11:00:30.689Z,5.30
2018-12-11T11:03:04.665Z,5.10
2018-12-11T11:05:32.335Z,5.00
2018-12-11T11:07:59.785Z,5.30
2018-12-11T11:10:27.257Z,5.50
2018-12-11T11:12:54.693Z,5.50
2018-12-11T11:15:22.134Z,5.40
2018-12-11T11:17:49.721Z,5.30
2018-12-11T11:20:17.280Z,5.50
2018-12-11T11:22:44.840Z,6.20
2018-12-11T11:25:12.291Z,6.50
2018-12-11T11:27:39.782Z,6.40
2018-12-11T11:30:08.515Z,6.20
2018-12-11T11:32:35.992Z,5.80
2018-12-11T11:35:04.376Z,5.60
2018-12-11T11:37:31.937Z,5.40
2018-12-11T11:39:59.393Z,5.50
2018-12-11T11:42:26.850Z,5.40
2018-12-11T11:44:54.504Z,5.30
2018-12-11T11:47:21.937Z,5.10
2018-12-11T11:49:49.432Z,5.10
2018-12-11T11:52:16.861Z,5.20
2018-12-11T11:54:44.300Z,5.20
2018-12-11T11:57:11.793Z,5.00
2018-12-11T11:59:39.252Z,5.00
2018-12-11T12:02:06.981Z,4.80
2018-12-11T12:04:34.416Z,4.80
2018-12-11T12:07:01.929Z,4.80
2018-12-11T12:09:29.392Z,4.80
2018-12-11T12:11:56.945Z,4.80
2018-12-11T12:14:24.435Z,4.80
2018-12-11T12:16:51.959Z,4.70
2018-12-11T12:19:19.416Z,4.70
2018-12-11T12:21:46.868Z,4.70
2018-12-11T12:24:14.427Z,4.70
2018-12-11T12:26:41.934Z,4.70
2018-12-11T12:29:09.449Z,4.70
2018-12-11T12:31:36.909Z,4.60
2018-12-11T12:34:04.482Z,4.50
2018-12-11T12:36:32.018Z,4.40
2018-12-11T12:38:59.440Z,4.30
2018-12-11T12:41:26.936Z,4.30
2018-12-11T12:43:54.394Z,4.30
2018-12-11T12:46:21.843Z,4.20
2018-12-11T12:48:49.268Z,4.20
2018-12-11T12:51:16.750Z,4.10
2018-12-11T12:53:44.177Z,4.20
2018-12-11T12:56:11.616Z,4.20
2018-12-11T12:58:39.130Z,4.20
2018-12-11T13:01:06.631Z,4.20
2018-12-11T13:03:34.388Z,4.20
2018-12-11T13:06:01.901Z,4.20
2018-12-11T13:08:29.460Z,4.20
2018-12-11T13:10:56.917Z,4.20
2018-12-11T13:13:24.380Z,4.20
2018-12-11T13:15:51.852Z,4.20
2018-12-11T13:18:19.384Z,4.20
2018-12-11T13:20:46.821Z,4.10
2018-12-11T13:23:14.302Z,4.10
2018-12-11T13:25:41.721Z,4.10
2018-12-11T13:28:09.227Z,4.10
2018-12-11T13:30:36.664Z,4.10
2018-12-11T13:33:04.101Z,4.10
2018-12-11T13:35:31.595Z,4.10
2018-12-11T13:37:59.033Z,4.30
2018-12-11T13:40:26.784Z,4.30
2018-12-11T13:42:54.251Z,4.40
2018-12-11T13:45:21.713Z,4.40
2018-12-11T13:47:49.139Z,4.40
2018-12-11T13:50:16.799Z,4.40
2018-12-11T13:52:44.255Z,4.40
2018-12-11T13:55:11.711Z,4.40
2018-12-11T13:57:39.137Z,4.40
2018-12-11T14:00:07.547Z,4.50
2018-12-11T14:02:34.997Z,4.50
2018-12-11T14:05:02.458Z,4.50
2018-12-11T14:07:29.909Z,4.60
2018-12-11T14:09:57.359Z,4.60
2018-12-11T14:12:24.825Z,4.60
2018-12-11T14:14:52.277Z,4.60
2018-12-11T14:17:19.983Z,4.50
2018-12-11T14:19:47.506Z,4.60
2018-12-11T14:22:15.057Z,4.50
2018-12-11T14:24:42.529Z,4.50
2018-12-11T14:27:09.968Z,4.40
2018-12-11T14:29:37.593Z,4.40
2018-12-11T14:32:05.209Z,4.40
2018-12-11T14:34:32.905Z,4.40
2018-12-11T14:37:00.338Z,4.40
2018-12-11T14:39:27.873Z,4.30
2018-12-11T14:41:55.337Z,4.30
2018-12-11T14:44:22.877Z,4.20
2018-12-11T14:46:50.440Z,4.20
2018-12-11T14:49:17.907Z,4.10
2018-12-11T14:51:45.334Z,4.00
2018-12-11T14:54:12.771Z,4.00
2018-12-11T14:56:40.269Z,3.90
2018-12-11T14:59:07.724Z,3.90
2018-12-11T15:01:35.165Z,3.90
2018-12-11T15:04:02.612Z,3.90
2018-12-11T15:06:30.084Z,3.80
2018-12-11T15:08:59.443Z,3.90
2018-12-11T15:11:26.948Z,3.90
2018-12-11T15:13:55.473Z,3.90
2018-12-11T15:16:23.128Z,3.90
2018-12-11T15:18:50.626Z,4.00
2018-12-11T15:21:18.115Z,4.00
2018-12-11T15:23:45.569Z,3.90
2018-12-11T15:26:13.025Z,3.90
2018-12-11T15:28:40.468Z,3.80
2018-12-11T15:31:09.157Z,3.70
2018-12-11T15:33:36.716Z,3.60
2018-12-11T15:36:04.143Z,3.50
2018-12-11T15:38:31.636Z,3.40
2018-12-11T15:40:59.073Z,3.40
2018-12-11T15:43:26.538Z,3.30
2018-12-11T15:45:54.026Z,3.30
2018-12-11T15:48:21.570Z,3.20
2018-12-11T15:50:51.851Z,3.10
2018-12-11T15:53:19.274Z,3.10
2018-12-11T15:55:46.767Z,3.20
2018-12-11T15:58:14.191Z,3.20
2018-12-11T16:00:41.704Z,3.30
2018-12-11T16:03:09.266Z,3.30
2018-12-11T16:05:36.705Z,3.30
2018-12-11T16:08:04.129Z,3.30
2018-12-11T16:10:31.636Z,3.30
2018-12-11T16:12:59.087Z,3.30
2018-12-11T16:15:26.642Z,3.20
2018-12-11T16:17:54.071Z,3.20
2018-12-11T16:20:21.524Z,3.20
2018-12-11T16:22:49.013Z,3.20
2018-12-11T16:25:16.615Z,3.30
2018-12-11T16:27:44.140Z,3.30
2018-12-11T16:30:11.617Z,3.20
2018-12-11T16:32:39.047Z,3.20
2018-12-11T16:35:06.650Z,3.20
2018-12-11T16:37:34.376Z,3.20
2018-12-11T16:40:04.805Z,3.20
2018-12-11T16:42:31.592Z,3.20
2018-12-11T16:44:59.105Z,3.20
2018-12-11T16:47:26.528Z,3.20
2018-12-11T16:49:54.020Z,3.20
2018-12-11T16:52:21.448Z,3.30
2018-12-11T16:54:49.034Z,3.30
2018-12-11T16:57:16.476Z,3.30
2018-12-11T16:59:44.304Z,3.30
2018-12-11T17:02:11.773Z,3.30
2018-12-11T17:04:39.200Z,3.20
2018-12-11T17:07:06.997Z,3.20
2018-12-11T17:09:36.363Z,3.20
2018-12-11T17:12:04.084Z,3.30
2018-12-11T17:14:31.526Z,3.30
2018-12-11T17:16:59.009Z,3.30
2018-12-11T17:19:26.433Z,3.40
2018-12-11T17:21:53.868Z,3.40
2018-12-11T17:24:21.304Z,3.40
2018-12-11T17:26:48.827Z,3.40
2018-12-11T17:29:16.368Z,3.40
2018-12-11T17:31:44.132Z,3.30
2018-12-11T17:34:11.566Z,3.30
2018-12-11T17:36:39.027Z,3.30
2018-12-11T17:39:07.346Z,3.30
2018-12-11T17:41:34.782Z,3.30
2018-12-11T17:44:02.474Z,3.30
2018-12-11T17:46:29.925Z,3.40
2018-12-11T17:48:57.377Z,3.40
2018-12-11T17:51:24.815Z,3.30
2018-12-11T17:53:52.585Z,3.30
2018-12-11T17:56:20.136Z,3.30
2018-12-11T17:58:47.603Z,3.30
2018-12-11T18:01:15.080Z,3.30
2018-12-11T18:03:42.621Z,3.30
2018-12-11T18:06:10.273Z,3.30
2018-12-11T18:08:37.737Z,3.30
2018-12-11T18:11:05.219Z,3.30
2018-12-11T18:13:32.753Z,3.30
2018-12-11T18:16:00.214Z,3.30
2018-12-11T18:18:27.765Z,3.30
2018-12-11T18:20:55.333Z,3.30
2018-12-11T18:23:22.769Z,3.30
2018-12-11T18:25:50.204Z,3.20
2018-12-11T18:28:17.644Z,3.20
2018-12-11T18:30:45.256Z,3.20
2018-12-11T18:33:12.694Z,3.10
2018-12-11T18:35:40.119Z,3.20
2018-12-11T18:38:07.560Z,3.20
2018-12-11T18:40:35.031Z,3.20
2018-12-11T18:43:02.562Z,3.10
2018-12-11T18:45:30.109Z,3.10
2018-12-11T18:47:57.752Z,3.10
2018-12-11T18:50:25.179Z,3.10
2018-12-11T18:52:52.601Z,3.00
2018-12-11T18:55:20.131Z,3.10
2018-12-11T18:57:47.564Z,3.10
2018-12-11T19:00:15.032Z,3.00
2018-12-11T19:02:42.495Z,3.10
2018-12-11T19:05:10.065Z,3.00
2018-12-11T19:07:37.612Z,3.00
2018-12-11T19:10:05.714Z,3.10
2018-12-11T19:12:33.165Z,3.00
2018-12-11T19:15:04.692Z,3.10
2018-12-11T19:17:30.115Z,3.10
2018-12-11T19:19:57.611Z,3.10
2018-12-11T19:22:25.134Z,3.10
2018-12-11T19:24:52.768Z,3.00
2018-12-11T19:27:20.241Z,3.00
2018-12-11T19:29:47.676Z,3.00
2018-12-11T19:32:15.312Z,3.00
2018-12-11T19:34:42.754Z,3.00
2018-12-11T19:37:13.089Z,3.00
2018-12-11T19:39:40.541Z,3.00
2018-12-11T19:42:08.024Z,3.00
2018-12-11T19:44:35.575Z,2.90
2018-12-11T19:47:03.310Z,2.90
2018-12-11T19:49:30.798Z,2.90
2018-12-11T19:51:58.229Z,2.90
2018-12-11T19:54:25.721Z,2.90
2018-12-11T19:56:53.162Z,2.90
2018-12-11T19:59:20.617Z,3.00
2018-12-11T20:01:48.176Z,2.90
2018-12-11T20:04:16.245Z,2.90
2018-12-11T20:06:43.805Z,3.00
2018-12-11T20:09:11.239Z,3.00
2018-12-11T20:11:38.685Z,3.00
2018-12-11T20:14:06.174Z,3.00
2018-12-11T20:16:33.748Z,3.00
2018-12-11T20:19:01.181Z,3.10
2018-12-11T20:21:28.611Z,3.10
2018-12-11T20:23:56.100Z,3.10
2018-12-11T20:26:23.551Z,3.10
2018-12-11T20:28:50.991Z,3.10
2018-12-11T20:31:18.427Z,3.10
2018-12-11T20:33:45.932Z,3.10
2018-12-11T20:36:13.480Z,3.10
2018-12-11T20:38:40.941Z,3.10
2018-12-11T20:41:08.449Z,3.10
2018-12-11T20:43:35.964Z,3.00
2018-12-11T20:46:03.516Z,3.00
2018-12-11T20:48:31.388Z,3.10
2018-12-11T20:50:58.838Z,3.10
2018-12-11T20:53:26.301Z,3.10
2018-12-11T20:55:53.758Z,3.00
2018-12-11T20:58:21.211Z,3.00
2018-12-11T21:00:48.665Z,3.00
2018-12-11T21:03:16.135Z,3.00
2018-12-11T21:05:43.680Z,3.00
2018-12-11T21:08:11.113Z,3.00
2018-12-11T21:10:38.593Z,2.90
2018-12-11T21:13:06.045Z,2.90
2018-12-11T21:15:33.475Z,2.90
2018-12-11T21:18:00.959Z,2.90
2018-12-11T21:20:28.419Z,3.00
2018-12-11T21:22:55.839Z,3.00
2018-12-11T21:25:23.329Z,2.90
2018-12-11T21:27:50.779Z,2.90
2018-12-11T21:30:18.211Z,2.90
2018-12-11T21:32:45.700Z,2.90
2018-12-11T21:35:13.148Z,2.90
2018-12-11T21:37:40.718Z,2.90
2018-12-11T21:40:08.217Z,3.00
2018-12-11T21:42:35.728Z,3.00
2018-12-11T21:45:04.313Z,3.00
2018-12-11T21:47:31.875Z,2.90
2018-12-11T21:49:59.323Z,2.90
2018-12-11T21:52:26.756Z,3.00
2018-12-11T21:54:54.245Z,2.90
2018-12-11T21:57:21.710Z,2.90
2018-12-11T21:59:49.263Z,2.90
2018-12-11T22:02:16.724Z,2.90
2018-12-11T22:04:44.164Z,2.90
2018-12-11T22:07:11.724Z,2.90
2018-12-11T22:09:39.161Z,2.90
2018-12-11T22:12:07.121Z,2.90
2018-12-11T22:14:34.705Z,3.00
2018-12-11T22:17:02.165Z,3.00
2018-12-11T22:19:29.720Z,3.00
2018-12-11T22:21:57.158Z,3.00
2018-12-11T22:24:24.640Z,2.90
2018-12-11T22:26:52.192Z,2.90
2018-12-11T22:29:19.765Z,2.90
2018-12-11T22:31:47.221Z,2.80
2018-12-11T22:34:14.679Z,2.90
2018-12-11T22:36:42.112Z,2.80
2018-12-11T22:39:09.545Z,2.90
2018-12-11T22:41:36.989Z,2.90
2018-12-11T22:44:04.505Z,2.80
2018-12-11T22:46:31.948Z,2.90
2018-12-11T22:48:59.423Z,2.90
2018-12-11T22:51:27.203Z,2.90
2018-12-11T22:53:54.840Z,3.00
2018-12-11T22:56:22.296Z,3.00
2018-12-11T22:58:49.749Z,3.00
2018-12-11T23:01:17.213Z,3.00
2018-12-11T23:03:44.670Z,3.00
2018-12-11T23:06:12.221Z,3.00
2018-12-11T23:08:39.678Z,3.00
2018-12-11T23:11:07.106Z,3.00
2018-12-11T23:13:34.592Z,3.00
2018-12-11T23:16:02.243Z,3.00
2018-12-11T23:18:29.696Z,3.00
2018-12-11T23:20:57.173Z,3.00
2018-12-11T23:23:24.597Z,3.00
2018-12-11T23:25:52.111Z,3.10
2018-12-11T23:28:19.628Z,3.10
2018-12-11T23:30:47.203Z,3.10
2018-12-11T23:33:14.752Z,3.00
2018-12-11T23:35:42.313Z,3.00
2018-12-11T23:38:09.769Z,3.00
2018-12-11T23:40:37.215Z,3.00
2018-12-11T23:43:04.780Z,3.00
2018-12-11T23:45:32.232Z,3.00
2018-12-11T23:47:59.801Z,3.00
2018-12-11T23:50:27.252Z,3.00
2018-12-11T23:52:54.718Z,3.00
2018-12-11T23:55:22.164Z,2.90
2018-12-11T23:57:49.629Z,2.80
